Time;durP1;ratioP1;P1;durP2;ratioP2;P2;SDS_P1;SDS_P2;PMS_P1;PMS_P2;Temp;Humidity;BMP_temperature;BMP_pressure;BME280_temperature;BME280_humidity;BME280_pressure;Samples;Min_cycle;Max_cycle;Signal;HPM_P1;HPM_P2
2024/01/03 00:01:38;;;;;;;7.95;2.85;;;;;;;;;;5132208;27;20139;-71
2024/01/03 00:04:07;;;;;;;6.75;2.47;;;;;;;;;;5134215;27;20047;-70
2024/01/03 00:06:34;;;;;;;7.10;2.40;;;;;;;;;;5132047;27;20126;-70
2024/01/03 00:09:02;;;;;;;8.38;2.53;;;;;;;;;;5132300;27;20050;-70
2024/01/03 00:11:32;;;;;;;5.57;2.80;;;;;;;;;;5132281;27;20047;-70
2024/01/03 00:14:27;;;;;;;6.30;2.13;;;;;;;;;;5132619;27;20047;-70
2024/01/03 00:17:00;;;;;;;7.72;2.60;;;;;;;;;;5128520;27;20121;-70
2024/01/03 00:19:27;;;;;;;4.82;2.05;;;;;;;;;;5131958;27;20131;-70
2024/01/03 00:21:55;;;;;;;5.35;2.30;;;;;;;;;;5132027;27;20089;-69
2024/01/03 00:24:25;;;;;;;7.13;2.65;;;;;;;;;;5131634;27;20388;-70
2024/01/03 00:26:52;;;;;;;7.00;2.83;;;;;;;;;;5131617;27;20059;-70
2024/01/03 00:29:22;;;;;;;5.65;2.45;;;;;;;;;;5131848;27;20043;-70
2024/01/03 00:31:49;;;;;;;4.93;2.53;;;;;;;;;;5131626;27;20142;-69
2024/01/03 00:34:35;;;;;;;7.63;3.03;;;;;;;;;;5131591;27;20410;-70
2024/01/03 00:37:04;;;;;;;3.92;2.08;;;;;;;;;;5131463;27;20066;-70
2024/01/03 00:39:34;;;;;;;6.50;2.55;;;;;;;;;;5131395;27;20532;-69
2024/01/03 00:42:01;;;;;;;5.10;2.17;;;;;;;;;;5131871;27;20058;-70
2024/01/03 00:44:27;;;;;;;5.35;2.08;;;;;;;;;;5130869;27;20047;-71
2024/01/03 00:46:56;;;;;;;5.28;2.25;;;;;;;;;;5131482;27;20047;-70
2024/01/03 00:49:25;;;;;;;4.38;2.00;;;;;;;;;;5131724;27;20047;-70
2024/01/03 00:51:53;;;;;;;4.22;2.28;;;;;;;;;;5131315;27;20047;-70
2024/01/03 00:54:22;;;;;;;5.75;2.20;;;;;;;;;;5130946;27;20065;-70
2024/01/03 00:56:49;;;;;;;5.25;2.15;;;;;;;;;;5130918;27;20521;-70
2024/01/03 00:59:16;;;;;;;6.93;2.92;;;;;;;;;;5131585;27;20046;-70
2024/01/03 01:01:44;;;;;;;10.52;2.97;;;;;;;;;;5131524;27;20050;-70
2024/01/03 01:04:12;;;;;;;5.63;2.42;;;;;;;;;;5130924;27;20053;-70
2024/01/03 01:06:42;;;;;;;4.05;2.22;;;;;;;;;;5131005;27;20051;-70
2024/01/03 01:09:09;;;;;;;5.60;2.10;;;;;;;;;;5132597;27;20043;-70
2024/01/03 01:11:35;;;;;;;5.70;2.10;;;;;;;;;;5130776;27;20051;-70
2024/01/03 01:14:02;;;;;;;4.35;2.60;;;;;;;;;;5131261;27;20043;-70
2024/01/03 01:16:29;;;;;;;3.78;2.30;;;;;;;;;;5130996;27;20095;-70
2024/01/03 01:18:56;;;;;;;7.80;3.08;;;;;;;;;;5131545;27;20047;-70
2024/01/03 01:21:23;;;;;;;3.95;2.30;;;;;;;;;;5131221;27;20047;-70
2024/01/03 01:23:49;;;;;;;6.03;2.67;;;;;;;;;;5130737;27;20047;-70
2024/01/03 01:26:16;;;;;;;7.32;2.47;;;;;;;;;;5133691;27;20502;-71
2024/01/03 01:28:43;;;;;;;3.92;2.00;;;;;;;;;;5130572;27;20050;-70
2024/01/03 01:31:10;;;;;;;6.65;2.45;;;;;;;;;;5130528;27;20392;-70
2024/01/03 01:33:36;;;;;;;5.50;3.30;;;;;;;;;;5130660;27;20633;-70
2024/01/03 01:36:04;;;;;;;6.72;2.65;;;;;;;;;;5130928;27;20044;-70
2024/01/03 01:38:30;;;;;;;7.38;2.72;;;;;;;;;;5132800;27;20039;-71
2024/01/03 01:40:57;;;;;;;11.23;3.17;;;;;;;;;;5130893;27;20089;-70
2024/01/03 01:43:24;;;;;;;6.05;2.40;;;;;;;;;;5130528;27;20404;-70
2024/01/03 01:45:51;;;;;;;6.50;2.70;;;;;;;;;;5130564;27;20047;-70
2024/01/03 01:48:19;;;;;;;8.43;3.25;;;;;;;;;;5130390;27;20088;-71
2024/01/03 01:50:46;;;;;;;6.88;3.25;;;;;;;;;;5130304;27;20534;-70
2024/01/03 01:53:14;;;;;;;7.70;3.20;;;;;;;;;;5130318;27;20050;-70
2024/01/03 01:55:41;;;;;;;6.10;2.40;;;;;;;;;;5130435;27;20051;-70
2024/01/03 01:58:11;;;;;;;5.45;2.67;;;;;;;;;;5130597;27;20039;-70
2024/01/03 02:00:41;;;;;;;12.90;2.85;;;;;;;;;;5130620;27;20042;-70
2024/01/03 02:03:10;;;;;;;5.68;2.90;;;;;;;;;;5130453;27;20043;-70
2024/01/03 02:05:37;;;;;;;5.90;2.45;;;;;;;;;;5130207;27;20062;-70
2024/01/03 02:08:08;;;;;;;5.03;2.40;;;;;;;;;;5129863;28;20051;-70
2024/01/03 02:10:36;;;;;;;9.45;2.78;;;;;;;;;;5130260;28;20043;-70
2024/01/03 02:13:03;;;;;;;4.82;2.45;;;;;;;;;;5130474;28;20050;-70
2024/01/03 02:15:29;;;;;;;7.28;3.10;;;;;;;;;;5131687;27;20050;-71
2024/01/03 02:17:57;;;;;;;4.93;2.88;;;;;;;;;;5134152;27;20051;-71
2024/01/03 02:20:30;;;;;;;4.80;2.42;;;;;;;;;;5116500;27;20043;-70
2024/01/03 02:22:59;;;;;;;6.60;2.70;;;;;;;;;;5134413;27;20135;-70
2024/01/03 02:25:26;;;;;;;8.18;3.05;;;;;;;;;;5112245;28;20059;-70
2024/01/03 02:27:52;;;;;;;9.02;3.10;;;;;;;;;;5113461;28;20424;-70
2024/01/03 02:30:19;;;;;;;6.35;2.88;;;;;;;;;;5113685;28;20411;-70
2024/01/03 02:32:46;;;;;;;5.20;2.50;;;;;;;;;;5113959;28;20054;-70
2024/01/03 02:35:13;;;;;;;5.85;2.40;;;;;;;;;;5113721;28;20134;-70
2024/01/03 02:37:39;;;;;;;7.03;2.33;;;;;;;;;;5113200;28;20523;-70
2024/01/03 02:40:07;;;;;;;7.22;3.03;;;;;;;;;;5113245;28;20059;-72
2024/01/03 02:42:34;;;;;;;6.93;2.63;;;;;;;;;;5113669;28;20104;-71
2024/01/03 02:45:00;;;;;;;5.10;2.33;;;;;;;;;;5113596;28;20048;-72
2024/01/03 02:47:30;;;;;;;7.53;2.75;;;;;;;;;;5113171;28;20073;-70
2024/01/03 02:49:58;;;;;;;6.45;2.95;;;;;;;;;;5113562;28;20051;-70
2024/01/03 02:52:25;;;;;;;6.30;2.63;;;;;;;;;;5113886;28;20103;-69
2024/01/03 02:54:52;;;;;;;6.28;2.70;;;;;;;;;;5112927;28;20097;-70
2024/01/03 02:57:19;;;;;;;7.25;2.50;;;;;;;;;;5113040;28;20044;-70
2024/01/03 02:59:46;;;;;;;6.47;3.00;;;;;;;;;;5113337;28;20047;-71
2024/01/03 03:02:13;;;;;;;5.82;2.70;;;;;;;;;;5113319;28;20091;-70
2024/01/03 03:04:40;;;;;;;5.18;2.67;;;;;;;;;;5113209;28;20047;-70
2024/01/03 03:07:06;;;;;;;6.80;2.97;;;;;;;;;;5113696;28;20159;-70
2024/01/03 03:09:33;;;;;;;6.40;2.83;;;;;;;;;;5112914;28;20074;-71
2024/01/03 03:11:59;;;;;;;5.28;2.60;;;;;;;;;;5112972;28;20051;-70
2024/01/03 03:14:26;;;;;;;7.55;2.97;;;;;;;;;;5113106;28;20062;-70
2024/01/03 03:16:56;;;;;;;5.25;2.58;;;;;;;;;;5112686;28;20075;-70
2024/01/03 03:19:23;;;;;;;6.43;2.55;;;;;;;;;;5112162;28;20050;-71
2024/01/03 03:21:49;;;;;;;6.93;2.60;;;;;;;;;;5112893;28;20126;-70
2024/01/03 03:24:16;;;;;;;5.25;2.55;;;;;;;;;;5112502;28;20571;-70
2024/01/03 03:26:43;;;;;;;5.63;2.58;;;;;;;;;;5129178;27;20427;-71
2024/01/03 03:29:09;;;;;;;6.13;2.67;;;;;;;;;;5133404;27;20209;-70
2024/01/03 03:31:36;;;;;;;5.60;2.60;;;;;;;;;;5133282;27;20051;-70
2024/01/03 03:34:03;;;;;;;7.38;3.20;;;;;;;;;;5133066;27;20047;-71
2024/01/03 03:36:30;;;;;;;5.85;2.70;;;;;;;;;;5133154;27;20043;-71
2024/01/03 03:38:57;;;;;;;6.00;2.58;;;;;;;;;;5132734;27;20045;-70
2024/01/03 03:41:26;;;;;;;4.95;2.47;;;;;;;;;;5133242;27;20047;-71
2024/01/03 03:43:53;;;;;;;4.53;2.55;;;;;;;;;;5133059;27;20039;-70
2024/01/03 03:46:20;;;;;;;5.68;2.80;;;;;;;;;;5133018;27;20043;-70
2024/01/03 03:48:47;;;;;;;5.45;2.67;;;;;;;;;;5132611;27;20100;-70
2024/01/03 03:51:14;;;;;;;9.82;3.25;;;;;;;;;;5132884;27;20092;-71
2024/01/03 03:53:40;;;;;;;5.13;2.85;;;;;;;;;;5132410;27;20047;-70
2024/01/03 03:56:07;;;;;;;4.63;2.55;;;;;;;;;;5132454;27;20047;-70
2024/01/03 03:58:34;;;;;;;4.40;2.28;;;;;;;;;;5132256;27;20043;-70
2024/01/03 04:01:00;;;;;;;5.93;2.83;;;;;;;;;;5132867;27;20050;-70
2024/01/03 04:03:27;;;;;;;5.25;2.55;;;;;;;;;;5132965;27;20039;-70
2024/01/03 04:05:54;;;;;;;7.00;2.55;;;;;;;;;;5132222;27;20043;-70
2024/01/03 04:08:21;;;;;;;3.53;2.53;;;;;;;;;;5134398;27;20043;-70
2024/01/03 04:10:48;;;;;;;8.38;2.88;;;;;;;;;;5135750;27;20055;-70
2024/01/03 04:13:14;;;;;;;8.30;3.10;;;;;;;;;;5132460;27;20122;-70
2024/01/03 04:15:41;;;;;;;6.43;3.10;;;;;;;;;;5132194;27;20518;-70
2024/01/03 04:18:08;;;;;;;6.65;3.05;;;;;;;;;;5131951;27;20554;-70
2024/01/03 04:20:35;;;;;;;8.70;3.58;;;;;;;;;;5132402;27;20107;-71
2024/01/03 04:23:02;;;;;;;5.07;2.92;;;;;;;;;;5132214;27;20100;-71
2024/01/03 04:25:29;;;;;;;4.97;2.70;;;;;;;;;;5131476;27;20055;-71
2024/01/03 04:27:56;;;;;;;4.28;2.35;;;;;;;;;;5131614;27;20541;-70
2024/01/03 04:30:22;;;;;;;9.00;2.47;;;;;;;;;;5131836;27;20491;-70
2024/01/03 04:32:49;;;;;;;7.15;3.28;;;;;;;;;;5131814;27;20506;-70
2024/01/03 04:35:16;;;;;;;7.30;3.03;;;;;;;;;;5131829;27;20523;-70
2024/01/03 04:37:45;;;;;;;6.78;2.75;;;;;;;;;;5130750;27;20078;-70
2024/01/03 04:40:12;;;;;;;5.40;2.78;;;;;;;;;;5131776;27;20043;-70
2024/01/03 04:42:38;;;;;;;6.25;3.28;;;;;;;;;;5131389;27;20051;-70
2024/01/03 04:45:05;;;;;;;5.40;2.63;;;;;;;;;;5113992;27;20062;-70
2024/01/03 04:47:32;;;;;;;7.40;3.00;;;;;;;;;;5131725;27;20051;-71
2024/01/03 04:49:59;;;;;;;5.13;2.85;;;;;;;;;;5131556;27;20049;-71
2024/01/03 04:52:26;;;;;;;6.05;2.80;;;;;;;;;;5131646;27;20043;-70
2024/01/03 04:54:53;;;;;;;5.78;2.83;;;;;;;;;;5131194;27;20047;-70
2024/01/03 04:57:19;;;;;;;8.90;3.50;;;;;;;;;;5131446;27;20043;-70
2024/01/03 04:59:46;;;;;;;4.47;3.08;;;;;;;;;;5131073;27;20420;-70
2024/01/03 05:02:13;;;;;;;7.07;3.55;;;;;;;;;;5131377;27;20043;-70
2024/01/03 05:04:40;;;;;;;5.32;3.03;;;;;;;;;;5131228;27;20078;-70
2024/01/03 05:07:06;;;;;;;4.07;2.45;;;;;;;;;;5131463;27;20047;-70
2024/01/03 05:09:34;;;;;;;5.65;2.92;;;;;;;;;;5131099;27;20054;-70
2024/01/03 05:12:02;;;;;;;7.82;3.75;;;;;;;;;;5131388;27;20545;-70
2024/01/03 05:14:33;;;;;;;7.15;3.13;;;;;;;;;;5131328;27;20043;-70
2024/01/03 05:17:00;;;;;;;6.03;2.20;;;;;;;;;;5130862;27;20553;-70
2024/01/03 05:19:27;;;;;;;6.47;2.75;;;;;;;;;;5130552;27;20058;-71
2024/01/03 05:21:54;;;;;;;5.78;2.85;;;;;;;;;;5130878;27;20133;-70
2024/01/03 05:24:21;;;;;;;7.25;3.17;;;;;;;;;;5131037;27;20046;-70
2024/01/03 05:26:47;;;;;;;4.72;2.67;;;;;;;;;;5130769;27;20062;-70
2024/01/03 05:29:14;;;;;;;7.88;3.30;;;;;;;;;;5130907;27;20046;-72
2024/01/03 05:31:41;;;;;;;7.13;3.20;;;;;;;;;;5130795;27;20130;-70
2024/01/03 05:34:10;;;;;;;5.07;2.95;;;;;;;;;;5130812;27;20511;-70
2024/01/03 05:36:36;;;;;;;7.47;2.75;;;;;;;;;;5130598;27;20406;-71
2024/01/03 05:39:03;;;;;;;7.97;2.85;;;;;;;;;;5130172;27;20486;-70
2024/01/03 05:41:30;;;;;;;6.13;2.80;;;;;;;;;;5130543;27;20043;-70
2024/01/03 05:43:57;;;;;;;6.78;3.00;;;;;;;;;;5130437;27;20503;-70
2024/01/03 05:46:23;;;;;;;5.43;2.80;;;;;;;;;;5130465;27;20522;-70
2024/01/03 05:48:50;;;;;;;6.25;3.10;;;;;;;;;;5130672;27;20046;-70
2024/01/03 05:51:18;;;;;;;4.63;2.63;;;;;;;;;;5130686;27;20054;-70
2024/01/03 05:53:47;;;;;;;5.88;2.78;;;;;;;;;;5130494;27;20081;-71
2024/01/03 05:56:15;;;;;;;7.53;3.00;;;;;;;;;;5130440;27;20055;-70
2024/01/03 05:58:43;;;;;;;5.45;2.38;;;;;;;;;;5130446;27;20043;-70
2024/01/03 06:01:10;;;;;;;5.93;2.60;;;;;;;;;;5130628;27;20075;-70
2024/01/03 06:03:37;;;;;;;6.85;2.40;;;;;;;;;;5130168;27;20523;-70
2024/01/03 06:06:04;;;;;;;5.68;2.78;;;;;;;;;;5130286;27;20515;-70
2024/01/03 06:08:31;;;;;;;7.60;3.08;;;;;;;;;;5130168;27;20047;-70
2024/01/03 06:10:57;;;;;;;4.60;2.70;;;;;;;;;;5130054;28;20126;-70
2024/01/03 06:13:24;;;;;;;6.05;2.90;;;;;;;;;;5130342;28;20107;-70
2024/01/03 06:15:51;;;;;;;4.80;2.90;;;;;;;;;;5130411;28;20051;-71
2024/01/03 06:18:18;;;;;;;6.53;2.58;;;;;;;;;;5130370;28;20151;-70
2024/01/03 06:20:45;;;;;;;6.63;2.80;;;;;;;;;;5130149;28;20047;-69
2024/01/03 06:23:12;;;;;;;4.95;2.53;;;;;;;;;;5130038;28;20135;-70
2024/01/03 06:25:38;;;;;;;6.63;2.80;;;;;;;;;;5129789;28;20062;-70
2024/01/03 06:28:05;;;;;;;4.38;2.45;;;;;;;;;;5129929;28;20586;-70
2024/01/03 06:30:34;;;;;;;6.95;3.10;;;;;;;;;;5129511;28;20478;-70
2024/01/03 06:33:01;;;;;;;5.65;2.97;;;;;;;;;;5130226;28;20043;-70
2024/01/03 06:35:28;;;;;;;4.82;2.67;;;;;;;;;;5129981;28;20051;-71
2024/01/03 06:37:56;;;;;;;5.28;2.53;;;;;;;;;;5130429;28;20103;-70
2024/01/03 06:40:22;;;;;;;8.50;3.03;;;;;;;;;;5130009;28;20039;-70
2024/01/03 06:42:49;;;;;;;5.55;2.63;;;;;;;;;;5130007;28;20043;-69
2024/01/03 06:45:16;;;;;;;3.92;2.35;;;;;;;;;;5130575;28;20059;-70
2024/01/03 06:47:42;;;;;;;4.60;2.63;;;;;;;;;;5111318;28;20082;-69
2024/01/03 06:50:10;;;;;;;5.20;2.40;;;;;;;;;;5129802;28;20039;-69
2024/01/03 06:52:36;;;;;;;6.07;3.00;;;;;;;;;;5129631;28;20635;-69
2024/01/03 06:55:04;;;;;;;7.38;2.80;;;;;;;;;;5129562;28;20414;-69
2024/01/03 06:57:31;;;;;;;5.32;2.70;;;;;;;;;;5129787;28;20042;-69
2024/01/03 06:59:57;;;;;;;4.43;2.47;;;;;;;;;;5129830;28;20079;-69
2024/01/03 07:02:25;;;;;;;5.60;2.63;;;;;;;;;;5132722;27;20047;-70
2024/01/03 07:04:52;;;;;;;3.90;2.17;;;;;;;;;;5133340;27;20134;-70
2024/01/03 07:07:19;;;;;;;4.13;2.50;;;;;;;;;;5133113;27;20047;-70
2024/01/03 07:09:46;;;;;;;9.40;3.03;;;;;;;;;;5133066;27;20047;-70
2024/01/03 07:12:17;;;;;;;4.65;2.72;;;;;;;;;;5133410;27;20100;-70
2024/01/03 07:14:44;;;;;;;5.30;2.97;;;;;;;;;;5133274;27;20692;-69
2024/01/03 07:17:10;;;;;;;7.18;3.00;;;;;;;;;;5133330;27;20467;-69
2024/01/03 07:19:37;;;;;;;5.95;2.85;;;;;;;;;;5132826;27;20046;-70
2024/01/03 07:22:04;;;;;;;11.32;4.00;;;;;;;;;;5115273;27;20058;-70
2024/01/03 07:24:30;;;;;;;5.10;2.33;;;;;;;;;;5133117;27;20039;-69
2024/01/03 07:26:57;;;;;;;5.47;2.83;;;;;;;;;;5132883;27;20066;-69
2024/01/03 07:29:24;;;;;;;5.43;3.00;;;;;;;;;;5133037;27;20063;-69
2024/01/03 07:31:51;;;;;;;8.60;3.10;;;;;;;;;;5133541;27;20055;-69
2024/01/03 07:34:18;;;;;;;7.55;3.10;;;;;;;;;;5133529;27;20062;-70
2024/01/03 07:36:45;;;;;;;5.88;2.97;;;;;;;;;;5133168;27;20613;-70
2024/01/03 07:39:11;;;;;;;5.70;3.08;;;;;;;;;;5132707;27;20050;-69
2024/01/03 07:41:42;;;;;;;4.93;2.85;;;;;;;;;;5133038;27;20043;-70
2024/01/03 07:44:09;;;;;;;7.03;3.25;;;;;;;;;;5133052;27;20081;-70
2024/01/03 07:46:36;;;;;;;4.68;2.63;;;;;;;;;;5132828;27;20051;-70
2024/01/03 07:49:02;;;;;;;7.57;3.05;;;;;;;;;;5132984;27;20050;-70
2024/01/03 07:51:29;;;;;;;3.17;2.10;;;;;;;;;;5132901;27;20126;-69
2024/01/03 07:53:56;;;;;;;9.35;3.38;;;;;;;;;;5132751;27;20158;-70
2024/01/03 07:56:23;;;;;;;8.60;3.65;;;;;;;;;;5132837;27;20050;-70
2024/01/03 07:58:50;;;;;;;5.25;2.83;;;;;;;;;;5132236;27;20039;-69
2024/01/03 08:01:19;;;;;;;7.70;3.25;;;;;;;;;;5132385;27;20054;-69
2024/01/03 08:03:46;;;;;;;6.03;2.72;;;;;;;;;;5132575;27;20126;-70
2024/01/03 08:06:23;;;;;;;6.63;3.05;;;;;;;;;;5132699;27;20122;-70
2024/01/03 08:08:50;;;;;;;7.68;3.65;;;;;;;;;;5132912;27;20047;-70
2024/01/03 08:11:17;;;;;;;8.40;3.38;;;;;;;;;;5132381;27;20051;-70
2024/01/03 08:13:44;;;;;;;7.85;3.65;;;;;;;;;;5130985;27;20100;-70
2024/01/03 08:16:11;;;;;;;8.52;3.92;;;;;;;;;;5132069;27;20054;-70
2024/01/03 08:18:39;;;;;;;6.85;3.38;;;;;;;;;;5131225;27;20051;-70
2024/01/03 08:21:06;;;;;;;6.45;3.08;;;;;;;;;;5131881;27;20126;-70
2024/01/03 08:23:33;;;;;;;6.60;3.70;;;;;;;;;;5132085;27;20489;-70
2024/01/03 08:26:00;;;;;;;9.05;3.38;;;;;;;;;;5131163;27;20055;-70
2024/01/03 08:28:26;;;;;;;5.40;2.85;;;;;;;;;;5131937;27;20055;-72
2024/01/03 08:30:53;;;;;;;7.07;3.08;;;;;;;;;;5131518;27;20039;-69
2024/01/03 08:33:20;;;;;;;6.25;2.97;;;;;;;;;;5132034;27;20075;-72
2024/01/03 08:35:47;;;;;;;8.98;3.30;;;;;;;;;;5131977;27;20043;-70
2024/01/03 08:38:13;;;;;;;5.35;3.15;;;;;;;;;;5133337;27;20076;-68
2024/01/03 08:40:40;;;;;;;10.13;3.50;;;;;;;;;;5131154;27;20050;-71
2024/01/03 08:43:07;;;;;;;7.15;3.55;;;;;;;;;;5131957;27;20047;-71
2024/01/03 08:45:33;;;;;;;8.68;3.65;;;;;;;;;;5131802;27;20043;-71
2024/01/03 08:48:05;;;;;;;6.22;3.38;;;;;;;;;;5121337;27;20075;-73
2024/01/03 08:50:33;;;;;;;6.13;3.40;;;;;;;;;;5141250;27;20338;-70
2024/01/03 08:52:59;;;;;;;6.18;3.55;;;;;;;;;;5136463;27;20525;-72
2024/01/03 08:55:26;;;;;;;6.50;3.63;;;;;;;;;;5131386;27;20050;-71
2024/01/03 08:57:56;;;;;;;8.15;3.40;;;;;;;;;;5131533;27;20047;-71
2024/01/03 09:00:24;;;;;;;8.38;3.28;;;;;;;;;;5131122;27;20107;-74
2024/01/03 09:02:51;;;;;;;5.53;3.03;;;;;;;;;;5131757;27;20046;-72
2024/01/03 09:05:21;;;;;;;4.95;2.92;;;;;;;;;;5132014;27;20070;-80
2024/01/03 09:07:48;;;;;;;9.57;3.57;;;;;;;;;;5131026;27;20065;-74
2024/01/03 09:10:15;;;;;;;5.70;3.20;;;;;;;;;;5130463;27;20540;-74
2024/01/03 09:12:42;;;;;;;5.78;3.33;;;;;;;;;;5130879;27;20044;-72
2024/01/03 09:15:09;;;;;;;7.28;3.78;;;;;;;;;;5131091;27;20065;-74
2024/01/03 09:17:40;;;;;;;8.10;3.78;;;;;;;;;;5131058;27;20571;-76
2024/01/03 09:20:07;;;;;;;8.30;3.83;;;;;;;;;;5131106;27;20054;-74
2024/01/03 09:22:34;;;;;;;7.22;3.78;;;;;;;;;;5130942;27;20555;-72
2024/01/03 09:25:01;;;;;;;6.68;3.58;;;;;;;;;;5130502;27;20058;-71
2024/01/03 09:27:27;;;;;;;6.72;4.05;;;;;;;;;;5130676;27;20055;-74
2024/01/03 09:29:56;;;;;;;7.43;4.00;;;;;;;;;;5133769;27;20043;-73
2024/01/03 09:32:23;;;;;;;7.55;3.97;;;;;;;;;;5130867;27;20111;-72
2024/01/03 09:34:50;;;;;;;11.65;4.45;;;;;;;;;;5133307;27;20473;-72
2024/01/03 09:37:16;;;;;;;9.90;4.47;;;;;;;;;;5131144;27;20039;-70
2024/01/03 09:39:43;;;;;;;6.90;3.58;;;;;;;;;;5120555;28;20053;-73
2024/01/03 09:42:10;;;;;;;8.55;3.45;;;;;;;;;;5109048;28;20054;-71
2024/01/03 09:44:37;;;;;;;8.70;4.22;;;;;;;;;;5107254;28;20079;-72
2024/01/03 09:47:04;;;;;;;10.80;4.30;;;;;;;;;;5108163;28;20047;-70
2024/01/03 09:49:31;;;;;;;6.97;3.63;;;;;;;;;;5114461;28;20332;-73
2024/01/03 09:51:58;;;;;;;6.97;3.55;;;;;;;;;;5114312;28;20043;-72
2024/01/03 09:54:25;;;;;;;8.13;3.58;;;;;;;;;;5091626;28;20530;-72
2024/01/03 09:56:52;;;;;;;7.68;3.97;;;;;;;;;;5108215;28;20500;-74
2024/01/03 09:59:19;;;;;;;9.50;4.00;;;;;;;;;;5127280;27;20046;-72
2024/01/03 10:01:56;;;;;;;7.05;3.55;;;;;;;;;;5130525;27;20092;-71
2024/01/03 10:04:23;;;;;;;8.88;4.30;;;;;;;;;;5130234;27;20047;-72
2024/01/03 10:06:54;;;;;;;7.00;3.40;;;;;;;;;;5131224;27;20086;-71
2024/01/03 10:09:21;;;;;;;8.48;3.30;;;;;;;;;;5132241;27;20043;-71
2024/01/03 10:11:52;;;;;;;10.20;4.10;;;;;;;;;;5130118;28;20506;-74
2024/01/03 10:14:24;;;;;;;8.32;3.63;;;;;;;;;;5130389;28;20078;-74
2024/01/03 10:16:51;;;;;;;7.03;3.40;;;;;;;;;;5130304;28;20134;-74
2024/01/03 10:19:19;;;;;;;6.78;3.65;;;;;;;;;;5130354;28;20043;-72
2024/01/03 10:21:55;;;;;;;5.85;3.22;;;;;;;;;;5128763;28;20047;-72
2024/01/03 10:24:24;;;;;;;5.95;3.10;;;;;;;;;;5130005;28;20043;-71
2024/01/03 10:26:52;;;;;;;7.97;3.88;;;;;;;;;;5129780;28;20612;-73
2024/01/03 10:29:20;;;;;;;5.88;3.28;;;;;;;;;;5129954;28;20046;-70
2024/01/03 10:31:48;;;;;;;8.48;4.32;;;;;;;;;;5129628;28;20505;-72
2024/01/03 10:34:22;;;;;;;10.82;4.43;;;;;;;;;;5130477;28;20483;-73
2024/01/03 10:36:56;;;;;;;9.38;4.25;;;;;;;;;;5132345;27;20039;-73
2024/01/03 10:39:23;;;;;;;9.15;4.03;;;;;;;;;;5133671;27;20485;-72
2024/01/03 10:41:50;;;;;;;11.35;4.47;;;;;;;;;;5132592;27;20056;-72
2024/01/03 10:44:18;;;;;;;6.25;3.47;;;;;;;;;;5134147;27;20051;-73
2024/01/03 10:46:47;;;;;;;11.18;3.72;;;;;;;;;;5137574;27;20085;-72
2024/01/03 10:49:15;;;;;;;8.68;4.13;;;;;;;;;;5134308;27;20051;-70
2024/01/03 10:51:44;;;;;;;7.95;3.85;;;;;;;;;;5135251;27;20050;-71
2024/01/03 10:54:17;;;;;;;5.03;2.85;;;;;;;;;;5133779;27;20043;-71
2024/01/03 10:56:49;;;;;;;6.75;3.30;;;;;;;;;;5115607;27;20073;-73
2024/01/03 10:59:17;;;;;;;8.88;4.00;;;;;;;;;;5133509;27;20046;-72
2024/01/03 11:02:01;;;;;;;7.72;3.95;;;;;;;;;;5133515;27;20047;-70
2024/01/03 11:04:49;;;;;;;7.20;3.40;;;;;;;;;;5133541;27;20108;-72
2024/01/03 11:07:39;;;;;;;7.65;3.25;;;;;;;;;;5117040;27;20066;-73
2024/01/03 11:10:06;;;;;;;8.45;3.45;;;;;;;;;;5116922;27;20043;-68
2024/01/03 11:12:34;;;;;;;6.38;3.40;;;;;;;;;;5133173;27;20375;-68
2024/01/03 11:15:23;;;;;;;7.00;3.00;;;;;;;;;;5134788;27;20043;-68
2024/01/03 11:18:06;;;;;;;7.80;3.35;;;;;;;;;;5133410;27;20043;-73
2024/01/03 11:20:34;;;;;;;6.72;3.50;;;;;;;;;;5133407;27;20540;-74
2024/01/03 11:23:02;;;;;;;6.00;2.95;;;;;;;;;;5133441;27;20104;-74
2024/01/03 11:25:48;;;;;;;5.95;3.13;;;;;;;;;;5132557;27;20568;-80
2024/01/03 11:28:30;;;;;;;8.30;3.70;;;;;;;;;;5137646;27;20053;-77
2024/01/03 11:30:58;;;;;;;5.85;3.08;;;;;;;;;;5133173;27;20039;-82
2024/01/03 11:33:28;;;;;;;6.38;3.08;;;;;;;;;;5119680;27;20043;-74
2024/01/03 11:35:55;;;;;;;8.82;3.47;;;;;;;;;;5136227;27;20047;-73
2024/01/03 11:38:42;;;;;;;6.75;2.92;;;;;;;;;;5133340;27;20049;-76
2024/01/03 11:41:14;;;;;;;7.35;3.15;;;;;;;;;;5133608;27;20057;-77
2024/01/03 11:43:40;;;;;;;4.90;2.45;;;;;;;;;;5132814;27;20074;-75
2024/01/03 11:46:15;;;;;;;6.22;3.00;;;;;;;;;;5132509;27;20047;-74
2024/01/03 11:48:46;;;;;;;9.40;3.80;;;;;;;;;;5136297;27;20050;-73
2024/01/03 11:51:24;;;;;;;6.00;2.92;;;;;;;;;;5133362;27;20043;-78
2024/01/03 11:53:52;;;;;;;8.15;3.30;;;;;;;;;;5102934;27;20142;-73
2024/01/03 11:56:29;;;;;;;5.85;2.75;;;;;;;;;;5140989;27;20323;-73
2024/01/03 11:58:57;;;;;;;6.22;3.28;;;;;;;;;;5117055;27;20569;-79
2024/01/03 12:01:24;;;;;;;5.95;2.80;;;;;;;;;;5135038;27;20039;-72
2024/01/03 12:04:07;;;;;;;6.35;3.47;;;;;;;;;;5132871;27;20047;-79
2024/01/03 12:06:34;;;;;;;7.05;3.30;;;;;;;;;;5132460;27;20043;-71
2024/01/03 12:09:02;;;;;;;7.05;3.35;;;;;;;;;;5133356;27;20138;-71
2024/01/03 12:11:31;;;;;;;6.18;3.13;;;;;;;;;;5133579;27;20074;-74
2024/01/03 12:13:58;;;;;;;8.07;3.30;;;;;;;;;;5136694;27;20052;-70
2024/01/03 12:16:24;;;;;;;5.45;2.65;;;;;;;;;;5134293;27;20039;-69
2024/01/03 12:18:52;;;;;;;8.07;3.10;;;;;;;;;;5132458;27;20050;-82
2024/01/03 12:21:19;;;;;;;7.55;3.58;;;;;;;;;;5114068;27;20539;-68
2024/01/03 12:24:12;;;;;;;6.55;3.47;;;;;;;;;;5131790;27;20095;-79
2024/01/03 12:26:39;;;;;;;6.68;2.90;;;;;;;;;;5107491;28;20047;-69
2024/01/03 12:29:06;;;;;;;8.13;3.58;;;;;;;;;;5115951;28;20142;-73
2024/01/03 12:31:33;;;;;;;3.92;2.50;;;;;;;;;;5112947;28;20118;-72
2024/01/03 12:34:04;;;;;;;6.82;3.10;;;;;;;;;;5111420;28;20474;-72
2024/01/03 12:36:33;;;;;;;5.82;2.90;;;;;;;;;;5110306;28;20130;-76
2024/01/03 12:39:00;;;;;;;4.80;2.70;;;;;;;;;;5110763;28;20085;-79
2024/01/03 12:41:30;;;;;;;7.57;3.22;;;;;;;;;;5111992;28;20039;-74
2024/01/03 12:43:57;;;;;;;6.53;3.30;;;;;;;;;;5110601;28;20051;-73
2024/01/03 12:46:23;;;;;;;6.28;3.08;;;;;;;;;;5111021;28;20411;-73
2024/01/03 12:48:53;;;;;;;5.32;2.95;;;;;;;;;;5113677;28;20074;-73
2024/01/03 12:51:21;;;;;;;7.03;2.60;;;;;;;;;;5116541;28;20054;-74
2024/01/03 12:53:58;;;;;;;4.20;2.28;;;;;;;;;;5115032;28;20263;-71
2024/01/03 12:56:25;;;;;;;5.25;2.67;;;;;;;;;;5117139;28;20051;-77
2024/01/03 12:58:52;;;;;;;6.97;2.88;;;;;;;;;;5112806;28;20051;-72
2024/01/03 13:01:19;;;;;;;5.45;2.35;;;;;;;;;;5115140;28;20040;-69
2024/01/03 13:03:49;;;;;;;4.82;2.58;;;;;;;;;;5115967;28;20636;-75
2024/01/03 13:06:19;;;;;;;4.60;2.63;;;;;;;;;;5110636;28;20491;-79
2024/01/03 13:08:46;;;;;;;6.82;3.30;;;;;;;;;;5113294;28;20160;-75
2024/01/03 13:11:16;;;;;;;7.70;3.47;;;;;;;;;;5114856;28;20086;-73
2024/01/03 13:13:47;;;;;;;8.70;3.60;;;;;;;;;;5110010;28;20050;-73
2024/01/03 13:16:14;;;;;;;5.65;2.67;;;;;;;;;;5109224;28;20047;-73
2024/01/03 13:18:41;;;;;;;3.70;2.00;;;;;;;;;;5110326;28;20047;-74
2024/01/03 13:21:11;;;;;;;5.15;2.85;;;;;;;;;;5114648;22;20110;-78
2024/01/03 13:23:38;;;;;;;8.75;3.47;;;;;;;;;;5089826;28;20044;-79
2024/01/03 13:26:04;;;;;;;6.10;3.00;;;;;;;;;;5078747;28;20143;-76
2024/01/03 13:28:31;;;;;;;5.07;2.35;;;;;;;;;;5089966;28;20054;-78
2024/01/03 13:31:00;;;;;;;7.00;3.35;;;;;;;;;;5092496;28;20040;-76
2024/01/03 13:33:27;;;;;;;9.63;3.47;;;;;;;;;;5093581;28;20044;-78
2024/01/03 13:35:54;;;;;;;6.57;3.10;;;;;;;;;;5092060;28;20078;-83
2024/01/03 13:38:21;;;;;;;6.82;2.90;;;;;;;;;;5092633;28;20048;-75
2024/01/03 13:40:48;;;;;;;7.25;3.15;;;;;;;;;;5092556;28;20044;-72
2024/01/03 13:43:14;;;;;;;6.18;3.10;;;;;;;;;;5091337;28;20040;-73
2024/01/03 13:45:41;;;;;;;7.43;3.10;;;;;;;;;;5089546;28;20058;-75
2024/01/03 13:48:08;;;;;;;6.25;3.03;;;;;;;;;;5089489;28;20044;-73
2024/01/03 13:50:36;;;;;;;7.57;2.80;;;;;;;;;;5093516;28;20040;-70
2024/01/03 13:53:03;;;;;;;6.30;2.95;;;;;;;;;;5089917;28;20044;-70
2024/01/03 13:55:30;;;;;;;6.55;3.17;;;;;;;;;;5091547;28;20115;-78
2024/01/03 13:57:57;;;;;;;5.60;2.60;;;;;;;;;;5092118;28;20050;-74
2024/01/03 14:00:27;;;;;;;7.45;3.20;;;;;;;;;;5080204;28;20102;-71
2024/01/03 14:02:54;;;;;;;5.45;2.83;;;;;;;;;;5076591;28;20211;-74
2024/01/03 14:05:23;;;;;;;6.20;2.75;;;;;;;;;;5079850;28;20072;-73
2024/01/03 14:07:51;;;;;;;7.10;3.08;;;;;;;;;;5079713;28;20339;-75
2024/01/03 14:10:18;;;;;;;7.88;3.17;;;;;;;;;;5071648;28;20488;-73
2024/01/03 14:12:44;;;;;;;6.72;3.03;;;;;;;;;;5074050;28;20056;-71
2024/01/03 14:15:12;;;;;;;4.85;2.55;;;;;;;;;;5074250;28;20056;-76
2024/01/03 14:17:39;;;;;;;6.57;2.63;;;;;;;;;;5080454;28;20051;-71
2024/01/03 14:20:11;;;;;;;4.95;3.00;;;;;;;;;;5077778;28;20375;-74
2024/01/03 14:22:39;;;;;;;7.45;3.00;;;;;;;;;;5079738;28;20058;-74
2024/01/03 14:25:06;;;;;;;5.43;2.90;;;;;;;;;;5076269;28;20049;-72
2024/01/03 14:27:33;;;;;;;6.28;2.88;;;;;;;;;;5078593;28;20045;-70
2024/01/03 14:30:00;;;;;;;8.38;2.88;;;;;;;;;;5076292;28;20070;-73
2024/01/03 14:32:28;;;;;;;7.35;3.15;;;;;;;;;;5078370;28;20336;-73
2024/01/03 14:34:54;;;;;;;8.43;3.47;;;;;;;;;;5078313;28;20048;-72
2024/01/03 14:37:22;;;;;;;7.32;3.20;;;;;;;;;;5077406;28;20048;-73
2024/01/03 14:39:49;;;;;;;7.95;3.30;;;;;;;;;;5078755;28;20439;-72
2024/01/03 14:42:21;;;;;;;5.65;2.72;;;;;;;;;;5077820;28;20059;-70
2024/01/03 14:44:50;;;;;;;4.53;2.55;;;;;;;;;;5075842;28;20232;-75
2024/01/03 14:47:19;;;;;;;8.82;3.08;;;;;;;;;;5079523;28;20466;-72
2024/01/03 14:49:46;;;;;;;7.45;3.30;;;;;;;;;;5080634;28;20053;-74